createdAt,value
2022-10-13T00:00:34.403Z,7.23
2022-10-13T00:03:41.991Z,7.25
2022-10-13T00:06:48.096Z,7.24
2022-10-13T00:09:54.319Z,7.23
2022-10-13T00:13:00.387Z,7.22
2022-10-13T00:16:07.103Z,7.21
2022-10-13T00:19:15.156Z,7.20
2022-10-13T00:22:21.703Z,7.15
2022-10-13T00:25:26.313Z,7.08
2022-10-13T00:28:33.219Z,6.97
2022-10-13T00:31:39.353Z,6.92
2022-10-13T00:34:45.491Z,6.88
2022-10-13T00:37:53.635Z,6.83
2022-10-13T00:40:59.708Z,6.77
2022-10-13T00:44:07.322Z,6.74
2022-10-13T00:47:13.559Z,6.72
2022-10-13T00:50:23.203Z,6.73
2022-10-13T00:53:33.363Z,6.73
2022-10-13T00:56:43.070Z,6.75
2022-10-13T00:59:49.699Z,6.74
2022-10-13T01:02:56.023Z,6.74
2022-10-13T01:06:01.718Z,6.73
2022-10-13T01:09:07.825Z,6.69
2022-10-13T01:12:25.518Z,6.67
2022-10-13T01:15:37.937Z,6.62
2022-10-13T01:18:51.959Z,6.57
2022-10-13T01:22:10.648Z,6.56
2022-10-13T01:25:32.650Z,6.55
2022-10-13T01:28:52.970Z,6.53
2022-10-13T01:32:08.016Z,6.48
2022-10-13T01:35:20.223Z,6.43
2022-10-13T01:38:36.729Z,6.39
2022-10-13T01:41:47.805Z,6.36
2022-10-13T01:44:58.304Z,6.33
2022-10-13T01:48:06.662Z,6.29
2022-10-13T01:51:17.679Z,6.25
2022-10-13T01:54:23.811Z,6.21
2022-10-13T01:57:39.658Z,6.18
2022-10-13T02:00:53.885Z,6.12
2022-10-13T02:04:11.912Z,6.05
2022-10-13T02:07:24.731Z,5.99
2022-10-13T02:10:37.846Z,5.94
2022-10-13T02:13:54.334Z,5.91
2022-10-13T02:17:04.693Z,5.89
2022-10-13T02:20:12.938Z,5.88
2022-10-13T02:23:20.382Z,5.87
2022-10-13T02:26:27.109Z,5.88
2022-10-13T02:29:33.737Z,5.89
2022-10-13T02:32:39.848Z,5.89
2022-10-13T02:35:46.312Z,5.91
2022-10-13T02:38:52.537Z,5.94
2022-10-13T02:41:58.639Z,5.96
2022-10-13T02:45:05.340Z,5.95
2022-10-13T02:48:11.689Z,5.94
2022-10-13T02:51:16.236Z,5.92
2022-10-13T02:54:22.431Z,5.92
2022-10-13T02:57:28.615Z,5.96
2022-10-13T03:00:34.899Z,5.97
2022-10-13T03:03:41.127Z,5.98
2022-10-13T03:06:47.207Z,5.99
2022-10-13T03:09:53.276Z,6.00
2022-10-13T03:12:59.894Z,6.01
2022-10-13T03:16:06.544Z,6.02
2022-10-13T03:19:12.818Z,6.01
2022-10-13T03:22:19.351Z,5.96
2022-10-13T03:25:25.653Z,5.94
2022-10-13T03:28:32.188Z,5.90
2022-10-13T03:31:38.259Z,5.85
2022-10-13T03:34:44.345Z,5.84
2022-10-13T03:37:50.566Z,5.85
2022-10-13T03:40:56.883Z,5.85
2022-10-13T03:44:01.904Z,5.84
2022-10-13T03:47:08.048Z,5.79
2022-10-13T03:50:14.542Z,5.80
2022-10-13T03:53:20.733Z,5.80
2022-10-13T03:56:28.377Z,5.82
2022-10-13T03:59:37.000Z,5.81
2022-10-13T04:02:43.521Z,5.80
2022-10-13T04:05:48.488Z,5.79
2022-10-13T04:08:55.224Z,5.76
2022-10-13T04:12:01.538Z,5.77
2022-10-13T04:15:06.525Z,5.78
2022-10-13T04:18:14.328Z,5.75
2022-10-13T04:21:20.536Z,5.76
2022-10-13T04:24:26.657Z,5.74
2022-10-13T04:27:33.690Z,5.72
2022-10-13T04:30:39.888Z,5.70
2022-10-13T04:33:46.316Z,5.67
2022-10-13T04:36:54.306Z,5.64
2022-10-13T04:40:00.409Z,5.59
2022-10-13T04:43:06.477Z,5.57
2022-10-13T04:46:15.421Z,5.54
2022-10-13T04:49:21.555Z,5.53
2022-10-13T04:52:27.728Z,5.52
2022-10-13T04:55:36.298Z,5.51
2022-10-13T04:58:44.083Z,5.50
2022-10-13T05:01:50.350Z,5.48
2022-10-13T05:04:56.513Z,5.47
2022-10-13T05:08:02.653Z,5.48
2022-10-13T05:11:08.871Z,5.48
2022-10-13T05:14:15.251Z,5.47
2022-10-13T05:17:21.347Z,5.47
2022-10-13T05:20:27.626Z,5.47
2022-10-13T05:23:33.774Z,5.48
2022-10-13T05:26:40.323Z,5.49
2022-10-13T05:29:46.419Z,5.52
2022-10-13T05:32:54.010Z,5.54
2022-10-13T05:36:06.863Z,5.55
2022-10-13T05:39:13.241Z,5.57
2022-10-13T05:42:18.086Z,5.59
2022-10-13T05:45:25.755Z,5.60
2022-10-13T05:48:32.399Z,5.64
2022-10-13T05:51:41.476Z,5.66
2022-10-13T05:54:52.142Z,5.67
2022-10-13T05:57:58.370Z,5.69
2022-10-13T06:01:07.149Z,5.73
2022-10-13T06:04:18.411Z,5.78
2022-10-13T06:07:25.135Z,5.82
2022-10-13T06:10:32.104Z,5.86
2022-10-13T06:13:38.292Z,5.90
2022-10-13T06:16:44.476Z,5.95
2022-10-13T06:19:50.413Z,5.99
2022-10-13T06:22:57.535Z,6.02
2022-10-13T06:26:03.582Z,6.05
2022-10-13T06:29:10.118Z,6.08
2022-10-13T06:32:16.487Z,6.12
2022-10-13T06:35:22.506Z,6.17
2022-10-13T06:38:28.955Z,6.23
2022-10-13T06:41:34.988Z,6.28
2022-10-13T06:44:41.165Z,6.34
2022-10-13T06:47:47.351Z,6.39
2022-10-13T06:50:53.625Z,6.45
2022-10-13T06:53:58.558Z,6.51
2022-10-13T06:57:06.593Z,6.54
2022-10-13T07:00:14.336Z,6.63
2022-10-13T07:03:20.389Z,6.68
2022-10-13T07:06:26.593Z,6.76
2022-10-13T07:09:34.116Z,6.81
2022-10-13T07:12:40.229Z,6.86
2022-10-13T07:15:46.407Z,6.92
2022-10-13T07:18:52.559Z,6.98
2022-10-13T07:21:59.247Z,7.05
2022-10-13T07:25:05.846Z,7.13
2022-10-13T07:28:12.041Z,7.22
2022-10-13T07:31:20.873Z,7.30
2022-10-13T07:34:26.983Z,7.35
2022-10-13T07:37:33.201Z,7.44
2022-10-13T07:40:39.745Z,7.53
2022-10-13T07:43:46.164Z,7.63
2022-10-13T07:46:50.714Z,7.76
2022-10-13T07:49:56.919Z,7.87
2022-10-13T07:53:03.011Z,8.02
2022-10-13T07:56:13.751Z,8.17
2022-10-13T07:59:20.404Z,8.34
2022-10-13T08:02:26.557Z,8.49
2022-10-13T08:05:32.722Z,8.66
2022-10-13T08:08:40.264Z,8.83
2022-10-13T08:11:46.379Z,8.97
2022-10-13T08:14:54.579Z,9.15
2022-10-13T08:18:00.828Z,9.31
2022-10-13T08:24:34.019Z,9.62
2022-10-13T08:27:50.663Z,9.78
2022-10-13T08:30:58.310Z,9.95
2022-10-13T08:34:04.659Z,10.08
2022-10-13T08:37:16.305Z,10.20
2022-10-13T08:40:24.297Z,10.33
2022-10-13T08:43:31.222Z,10.46
2022-10-13T08:46:48.344Z,10.59
2022-10-13T08:49:59.799Z,10.73
2022-10-13T08:53:12.572Z,10.89
2022-10-13T08:56:23.459Z,11.06
2022-10-13T08:59:29.961Z,11.22
2022-10-13T09:02:35.956Z,11.41
2022-10-13T09:05:50.032Z,11.57
2022-10-13T09:08:58.920Z,11.74
2022-10-13T09:12:06.050Z,11.89
2022-10-13T09:15:14.496Z,12.05
2022-10-13T09:18:28.789Z,12.21
2022-10-13T09:21:34.966Z,12.37
2022-10-13T09:24:41.247Z,12.53
2022-10-13T09:27:46.463Z,12.68
2022-10-13T09:31:04.410Z,12.79
2022-10-13T09:34:23.980Z,12.98
2022-10-13T09:37:30.143Z,13.16
2022-10-13T09:40:37.225Z,13.31
2022-10-13T09:43:58.751Z,13.45
2022-10-13T09:47:06.787Z,13.58
2022-10-13T09:50:21.422Z,13.77
2022-10-13T09:53:31.310Z,14.01
2022-10-13T09:56:43.692Z,14.24
2022-10-13T09:59:52.309Z,14.44
2022-10-13T10:03:03.586Z,14.61
2022-10-13T10:06:13.818Z,14.81
2022-10-13T10:09:38.030Z,14.99
2022-10-13T10:12:45.320Z,14.69
2022-10-13T10:15:57.870Z,14.52
2022-10-13T10:19:08.717Z,14.93
2022-10-13T10:22:23.100Z,15.36
2022-10-13T10:25:35.576Z,15.74
2022-10-13T10:28:56.885Z,15.93
2022-10-13T10:32:21.659Z,15.67
2022-10-13T10:35:42.911Z,15.53
2022-10-13T10:38:52.793Z,15.53
2022-10-13T10:42:07.427Z,15.50
2022-10-13T10:45:19.880Z,15.60
2022-10-13T10:48:30.135Z,15.76
2022-10-13T10:51:39.397Z,16.05
2022-10-13T10:54:53.630Z,15.97
2022-10-13T10:58:08.451Z,15.91
2022-10-13T11:01:28.649Z,15.93
2022-10-13T11:04:45.056Z,15.97
2022-10-13T11:08:01.616Z,16.12
2022-10-13T11:11:47.552Z,16.25
2022-10-13T11:15:10.206Z,16.30
2022-10-13T11:18:51.079Z,16.37
2022-10-13T11:22:27.481Z,16.50
2022-10-13T11:25:41.750Z,16.61
2022-10-13T11:28:51.168Z,16.68
2022-10-13T11:31:57.722Z,16.77
2022-10-13T11:35:19.679Z,16.87
2022-10-13T11:38:36.488Z,16.96
2022-10-13T11:41:52.679Z,17.02
2022-10-13T11:45:01.026Z,17.10
2022-10-13T11:48:31.823Z,17.18
2022-10-13T11:51:50.294Z,17.26
2022-10-13T11:55:02.815Z,17.33
2022-10-13T11:58:19.598Z,17.39
2022-10-13T12:01:25.747Z,17.43
2022-10-13T12:04:32.009Z,17.48
2022-10-13T12:07:42.186Z,17.55
2022-10-13T12:10:55.071Z,17.59
2022-10-13T12:14:02.328Z,17.60
2022-10-13T12:17:24.245Z,17.61
2022-10-13T12:20:35.308Z,17.64
2022-10-13T12:23:42.202Z,17.70
2022-10-13T12:26:48.442Z,17.77
2022-10-13T12:29:54.620Z,17.82
2022-10-13T12:33:02.013Z,17.86
2022-10-13T12:36:20.575Z,17.90
2022-10-13T12:39:27.903Z,17.92
2022-10-13T12:42:37.302Z,17.95
2022-10-13T12:45:44.507Z,17.99
2022-10-13T12:48:51.380Z,18.00
2022-10-13T12:52:05.325Z,17.97
2022-10-13T12:55:20.602Z,17.94
2022-10-13T12:58:30.794Z,17.91
2022-10-13T13:01:38.078Z,17.91
2022-10-13T13:04:45.739Z,17.96
2022-10-13T13:07:56.495Z,18.01
2022-10-13T13:11:04.000Z,18.04
2022-10-13T13:14:38.747Z,18.05
2022-10-13T13:17:57.902Z,18.06
2022-10-13T13:21:05.824Z,18.03
2022-10-13T13:24:28.268Z,17.98
2022-10-13T13:27:41.093Z,17.95
2022-10-13T13:30:47.179Z,17.92
2022-10-13T13:33:53.621Z,17.88
2022-10-13T13:37:02.700Z,17.83
2022-10-13T13:40:15.972Z,17.79
2022-10-13T13:43:22.271Z,17.75
2022-10-13T13:46:32.605Z,17.73
2022-10-13T13:49:39.215Z,17.69
2022-10-13T13:52:43.803Z,17.67
2022-10-13T13:55:50.579Z,17.63
2022-10-13T13:58:57.135Z,17.59
2022-10-13T14:02:03.601Z,17.56
2022-10-13T14:05:11.219Z,17.53
2022-10-13T14:08:17.352Z,17.51
2022-10-13T14:11:23.355Z,17.45
2022-10-13T14:14:28.029Z,17.39
2022-10-13T14:17:34.234Z,17.34
2022-10-13T14:20:43.882Z,17.26
2022-10-13T14:23:50.133Z,17.16
2022-10-13T14:26:56.351Z,17.06
2022-10-13T14:30:02.696Z,16.95
2022-10-13T14:33:09.185Z,16.85
2022-10-13T14:36:15.274Z,16.76
2022-10-13T14:39:19.872Z,16.68
2022-10-13T14:42:26.303Z,16.61
2022-10-13T14:45:32.369Z,16.54
2022-10-13T14:48:37.848Z,16.45
2022-10-13T14:51:44.201Z,16.35
2022-10-13T14:54:50.389Z,16.27
2022-10-13T14:57:56.482Z,16.17
2022-10-13T15:01:01.044Z,16.08
2022-10-13T15:04:07.825Z,15.98
2022-10-13T15:07:14.051Z,15.89
2022-10-13T15:10:20.460Z,15.79
2022-10-13T15:13:26.725Z,15.69
2022-10-13T15:16:34.391Z,15.58
2022-10-13T15:19:40.472Z,15.47
2022-10-13T15:22:45.011Z,15.34
2022-10-13T15:25:56.385Z,15.22
2022-10-13T15:29:02.637Z,15.09
2022-10-13T15:32:13.791Z,15.06
2022-10-13T15:35:19.801Z,15.50
2022-10-13T15:38:26.479Z,15.92
2022-10-13T15:41:32.511Z,16.19
2022-10-13T15:48:03.176Z,16.50
2022-10-13T15:51:10.630Z,16.62
2022-10-13T15:54:17.808Z,16.66
2022-10-13T15:57:23.947Z,16.57
2022-10-13T16:00:28.735Z,16.05
2022-10-13T16:03:34.989Z,15.56
2022-10-13T16:06:39.484Z,15.27
2022-10-13T16:09:45.603Z,15.49
2022-10-13T16:12:50.074Z,15.74
2022-10-13T16:16:03.184Z,15.84
2022-10-13T16:19:09.330Z,15.91
2022-10-13T16:22:13.799Z,15.95
2022-10-13T16:25:20.067Z,15.94
2022-10-13T16:28:26.266Z,15.96
2022-10-13T16:31:32.463Z,15.95
2022-10-13T16:34:37.900Z,15.93
2022-10-13T16:37:44.069Z,15.85
2022-10-13T16:40:48.521Z,15.83
2022-10-13T16:43:54.624Z,15.76
2022-10-13T16:47:00.825Z,15.62
2022-10-13T16:50:09.891Z,15.00
2022-10-13T16:53:16.305Z,14.42
2022-10-13T16:56:24.138Z,14.07
2022-10-13T16:59:30.705Z,14.27
2022-10-13T17:02:37.485Z,14.50
2022-10-13T17:05:43.613Z,14.61
2022-10-13T17:08:49.776Z,14.66
2022-10-13T17:11:55.852Z,14.66
2022-10-13T17:15:01.976Z,14.64
2022-10-13T17:18:06.843Z,14.63
2022-10-13T17:21:16.311Z,14.58
2022-10-13T17:24:22.870Z,14.57
2022-10-13T17:27:30.076Z,14.55
2022-10-13T17:30:36.283Z,14.48
2022-10-13T17:33:41.396Z,14.42
2022-10-13T17:36:50.774Z,14.34
2022-10-13T17:39:56.980Z,14.31
2022-10-13T17:43:02.388Z,14.28
2022-10-13T17:46:36.288Z,14.22
2022-10-13T17:49:40.105Z,14.17
2022-10-13T17:52:46.808Z,14.12
2022-10-13T17:55:54.895Z,14.07
2022-10-13T17:59:02.531Z,14.00
2022-10-13T18:02:08.750Z,13.91
2022-10-13T18:05:13.327Z,13.84
2022-10-13T18:08:20.075Z,13.76
2022-10-13T18:11:26.716Z,13.75
2022-10-13T18:14:32.820Z,13.71
2022-10-13T18:17:38.855Z,13.67
2022-10-13T18:20:44.927Z,13.61
2022-10-13T18:23:51.196Z,13.55
2022-10-13T18:26:55.661Z,13.48
2022-10-13T18:30:01.793Z,13.40
2022-10-13T18:33:08.029Z,13.34
2022-10-13T18:36:19.977Z,13.28
2022-10-13T18:39:28.560Z,13.17
2022-10-13T18:42:34.681Z,13.11
2022-10-13T18:45:40.815Z,13.04
2022-10-13T18:48:46.794Z,12.97
2022-10-13T18:51:54.014Z,12.88
2022-10-13T18:55:00.199Z,12.81
2022-10-13T18:58:04.764Z,12.75
2022-10-13T19:01:13.364Z,12.67
2022-10-13T19:04:21.700Z,12.63
2022-10-13T19:07:27.756Z,12.59
2022-10-13T19:10:33.786Z,12.55
2022-10-13T19:13:40.342Z,12.54
2022-10-13T19:16:47.052Z,12.52
2022-10-13T19:19:53.259Z,12.51
2022-10-13T19:22:57.815Z,12.49
2022-10-13T19:26:14.021Z,12.42
2022-10-13T19:29:21.031Z,12.38
2022-10-13T19:32:27.221Z,12.32
2022-10-13T19:35:33.342Z,12.25
2022-10-13T19:38:40.407Z,12.18
2022-10-13T19:41:47.955Z,12.09
2022-10-13T19:44:54.129Z,12.03
2022-10-13T19:47:58.650Z,11.98
2022-10-13T19:51:05.911Z,11.92
2022-10-13T19:54:12.330Z,11.90
2022-10-13T19:57:19.834Z,11.87
2022-10-13T20:00:26.233Z,11.84
2022-10-13T20:03:30.804Z,11.81
2022-10-13T20:06:37.790Z,11.77
2022-10-13T20:09:43.906Z,11.76
2022-10-13T20:12:50.075Z,11.72
2022-10-13T20:15:56.132Z,11.69
2022-10-13T20:19:03.310Z,11.65
2022-10-13T20:22:09.519Z,11.60
2022-10-13T20:25:19.781Z,11.54
2022-10-13T20:28:26.056Z,11.49
2022-10-13T20:31:30.779Z,11.46
2022-10-13T20:34:37.002Z,11.41
2022-10-13T20:37:41.474Z,11.41
2022-10-13T20:40:47.600Z,11.36
2022-10-13T20:43:54.772Z,11.33
2022-10-13T20:47:01.047Z,11.28
2022-10-13T20:50:08.568Z,11.22
2022-10-13T20:53:14.542Z,11.15
2022-10-13T20:56:22.858Z,11.14
2022-10-13T20:59:29.200Z,11.11
2022-10-13T21:02:33.913Z,11.09
2022-10-13T21:05:40.128Z,11.02
2022-10-13T21:08:49.250Z,10.98
2022-10-13T21:11:55.479Z,10.94
2022-10-13T21:15:01.553Z,10.89
2022-10-13T21:18:08.833Z,10.85
2022-10-13T21:21:15.235Z,10.82
2022-10-13T21:24:19.861Z,10.80
2022-10-13T21:27:26.116Z,10.75
2022-10-13T21:30:33.016Z,10.74
2022-10-13T21:33:40.913Z,10.73
2022-10-13T21:36:47.087Z,10.70
2022-10-13T21:39:53.510Z,10.66
2022-10-13T21:42:59.508Z,10.63
2022-10-13T21:46:13.351Z,10.59
2022-10-13T21:49:19.515Z,10.55
2022-10-13T21:52:26.256Z,10.53
2022-10-13T21:55:33.124Z,10.50
2022-10-13T21:58:39.954Z,10.46
2022-10-13T22:01:46.321Z,10.42
2022-10-13T22:04:51.357Z,10.41
2022-10-13T22:07:56.958Z,10.37
2022-10-13T22:11:02.468Z,10.38
2022-10-13T22:14:08.719Z,10.37
2022-10-13T22:17:13.149Z,10.36
2022-10-13T22:20:18.900Z,10.32
2022-10-13T22:23:24.249Z,10.30
2022-10-13T22:26:31.349Z,10.27
2022-10-13T22:29:36.728Z,10.24
2022-10-13T22:32:42.066Z,10.22
2022-10-13T22:35:47.569Z,10.20
2022-10-13T22:38:54.964Z,10.18
2022-10-13T22:42:00.408Z,10.14
2022-10-13T22:45:07.326Z,10.10
2022-10-13T22:48:14.289Z,10.08
2022-10-13T22:51:22.683Z,10.04
2022-10-13T22:54:28.122Z,10.01
2022-10-13T22:57:33.686Z,9.99
2022-10-13T23:00:39.885Z,9.98
2022-10-13T23:03:47.650Z,9.98
2022-10-13T23:06:53.070Z,9.99
2022-10-13T23:09:58.545Z,10.00
2022-10-13T23:13:04.262Z,10.02
2022-10-13T23:16:12.559Z,10.04
2022-10-13T23:19:19.638Z,10.06
2022-10-13T23:22:25.033Z,10.07
2022-10-13T23:25:30.490Z,10.08
2022-10-13T23:28:36.964Z,10.09
2022-10-13T23:31:42.830Z,10.09
2022-10-13T23:34:48.368Z,10.08
2022-10-13T23:37:55.920Z,10.06
2022-10-13T23:41:07.679Z,10.04
2022-10-13T23:44:13.777Z,10.02
2022-10-13T23:47:20.184Z,10.01
2022-10-13T23:50:26.675Z,9.98
2022-10-13T23:53:37.333Z,9.96
2022-10-13T23:56:43.514Z,9.94
2022-10-13T23:59:49.739Z,9.94
